Trim Flying Club goes to the Aran Islands

Learn to fly at Trim Flying Club

Rainfall Radar Now

Atlantic Charts Pressure - Today

Atlantic Charts Rainfall - Today

 
 

Atlantic Charts Pressure - Tomorrow

Sunrise Sunset

Click for Dublin, Ireland Forecast

Aviation WX Dublin EIDW

[source: ADDS]
METAR
EIDW 301700Z 24012KT 9999 FEW020 SCT045 BKN060 20/13 Q1014 NOSIG =
TAF
TAF EIDW 301100Z 3012/3112 26019KT 9999 FEW018 BKN025 BECMG 3016/3019 25013KT BECMG 3022/3101 26008KT PROB30 TEMPO 3108/3110 -RA BKN015 BECMG 3109/3112 22010KT TEMPO 3110/3112 5000 RA BKN013 =